Terminal Aerodrome Forecast
Issued by NWS

Home | Current Version | Previous Version | Text Only | Print | Product List | Glossary On
Versions: 1 2 3 4 5 6 7 8 9 10 11 12 13 14 15 16 17 18 19 20 21 22 23 24 25 26 27 28 29 30 31 32 33 34 35 36 37 38 39 40 41 42 43 44 45 46 47 48 49 50
000
FTUS46 KOTX 011723
TAFSFF
TAF
KSFF 011723Z 0118/0218 10003KT 4SM -SN SCT014 OVC035
     FM011900 09003KT 2SM -SN SCT007 OVC010
     FM012300 VRB03KT 4SM -SNRA OVC008
     FM020100 19003KT 5SM -SHRASN BR OVC012
     FM020300 VRB03KT 6SM BR OVC010=

USA.gov is the U.S. government's official web portal to all federal, state and local government web resources and services.